sensor_id;sensor_type;location;lat;lon;timestamp;P1;durP1;ratioP1;P2;durP2;ratioP2
24279;SDS011;12395;42.808;23.408;2023-04-03T00:01:09;1.27;;;1.17;;
24279;SDS011;12395;42.808;23.408;2023-04-03T00:03:35;1.95;;;1.42;;
24279;SDS011;12395;42.808;23.408;2023-04-03T00:06:01;2.33;;;1.48;;
24279;SDS011;12395;42.808;23.408;2023-04-03T00:08:27;1.60;;;1.40;;
24279;SDS011;12395;42.808;23.408;2023-04-03T00:10:55;2.30;;;1.90;;
24279;SDS011;12395;42.808;23.408;2023-04-03T00:13:20;2.85;;;1.63;;
24279;SDS011;12395;42.808;23.408;2023-04-03T00:15:46;2.60;;;1.35;;
24279;SDS011;12395;42.808;23.408;2023-04-03T00:18:11;2.38;;;1.90;;
24279;SDS011;12395;42.808;23.408;2023-04-03T00:20:37;2.08;;;1.60;;
24279;SDS011;12395;42.808;23.408;2023-04-03T00:23:02;1.60;;;1.27;;
24279;SDS011;12395;42.808;23.408;2023-04-03T00:25:28;3.40;;;1.70;;
24279;SDS011;12395;42.808;23.408;2023-04-03T00:27:54;2.35;;;1.60;;
24279;SDS011;12395;42.808;23.408;2023-04-03T00:30:20;2.00;;;1.60;;
24279;SDS011;12395;42.808;23.408;2023-04-03T00:32:49;3.23;;;2.20;;
24279;SDS011;12395;42.808;23.408;2023-04-03T00:35:16;5.53;;;2.90;;
24279;SDS011;12395;42.808;23.408;2023-04-03T00:37:42;5.53;;;2.83;;
24279;SDS011;12395;42.808;23.408;2023-04-03T00:40:08;5.22;;;2.75;;
24279;SDS011;12395;42.808;23.408;2023-04-03T00:42:42;3.08;;;2.15;;
24279;SDS011;12395;42.808;23.408;2023-04-03T00:47:48;2.83;;;1.70;;
24279;SDS011;12395;42.808;23.408;2023-04-03T00:50:13;3.57;;;1.90;;
24279;SDS011;12395;42.808;23.408;2023-04-03T00:52:39;2.53;;;1.63;;
24279;SDS011;12395;42.808;23.408;2023-04-03T00:55:05;2.17;;;1.60;;
24279;SDS011;12395;42.808;23.408;2023-04-03T00:57:33;3.37;;;2.00;;
24279;SDS011;12395;42.808;23.408;2023-04-03T01:00:02;2.30;;;1.80;;
24279;SDS011;12395;42.808;23.408;2023-04-03T01:02:32;2.77;;;1.47;;
24279;SDS011;12395;42.808;23.408;2023-04-03T01:04:57;2.40;;;1.80;;
24279;SDS011;12395;42.808;23.408;2023-04-03T01:07:24;3.30;;;1.60;;
24279;SDS011;12395;42.808;23.408;2023-04-03T01:09:53;3.13;;;2.30;;
24279;SDS011;12395;42.808;23.408;2023-04-03T01:12:23;2.63;;;1.80;;
24279;SDS011;12395;42.808;23.408;2023-04-03T01:14:58;3.07;;;1.97;;
24279;SDS011;12395;42.808;23.408;2023-04-03T01:17:45;2.30;;;1.60;;
24279;SDS011;12395;42.808;23.408;2023-04-03T01:25:45;4.70;;;1.70;;
24279;SDS011;12395;42.808;23.408;2023-04-03T01:28:14;1.50;;;1.38;;
24279;SDS011;12395;42.808;23.408;2023-04-03T01:30:44;2.33;;;1.88;;
24279;SDS011;12395;42.808;23.408;2023-04-03T01:33:14;1.83;;;1.50;;
24279;SDS011;12395;42.808;23.408;2023-04-03T01:35:39;1.70;;;1.55;;
24279;SDS011;12395;42.808;23.408;2023-04-03T01:38:04;2.08;;;1.85;;
24279;SDS011;12395;42.808;23.408;2023-04-03T01:40:30;3.17;;;1.83;;
24279;SDS011;12395;42.808;23.408;2023-04-03T01:42:55;1.83;;;1.50;;
24279;SDS011;12395;42.808;23.408;2023-04-03T01:45:21;2.13;;;1.45;;
24279;SDS011;12395;42.808;23.408;2023-04-03T01:47:46;3.78;;;2.20;;
24279;SDS011;12395;42.808;23.408;2023-04-03T01:50:11;2.73;;;1.87;;
24279;SDS011;12395;42.808;23.408;2023-04-03T01:52:37;3.08;;;2.30;;
24279;SDS011;12395;42.808;23.408;2023-04-03T01:55:02;5.03;;;2.47;;
24279;SDS011;12395;42.808;23.408;2023-04-03T01:57:28;2.60;;;1.90;;
24279;SDS011;12395;42.808;23.408;2023-04-03T01:59:53;2.40;;;1.67;;
24279;SDS011;12395;42.808;23.408;2023-04-03T02:02:19;2.10;;;1.50;;
24279;SDS011;12395;42.808;23.408;2023-04-03T02:04:45;2.28;;;1.63;;
24279;SDS011;12395;42.808;23.408;2023-04-03T02:07:11;2.57;;;2.13;;
24279;SDS011;12395;42.808;23.408;2023-04-03T02:09:36;3.30;;;2.47;;
24279;SDS011;12395;42.808;23.408;2023-04-03T02:12:01;4.30;;;2.27;;
24279;SDS011;12395;42.808;23.408;2023-04-03T02:14:27;2.93;;;2.20;;
24279;SDS011;12395;42.808;23.408;2023-04-03T02:16:52;3.40;;;2.10;;
24279;SDS011;12395;42.808;23.408;2023-04-03T02:19:18;3.27;;;2.30;;
24279;SDS011;12395;42.808;23.408;2023-04-03T02:21:43;3.97;;;2.15;;
24279;SDS011;12395;42.808;23.408;2023-04-03T02:24:09;3.23;;;2.10;;
24279;SDS011;12395;42.808;23.408;2023-04-03T02:26:34;2.92;;;2.10;;
24279;SDS011;12395;42.808;23.408;2023-04-03T02:29:00;3.45;;;2.17;;
24279;SDS011;12395;42.808;23.408;2023-04-03T02:31:25;3.17;;;2.13;;
24279;SDS011;12395;42.808;23.408;2023-04-03T02:33:51;2.92;;;2.08;;
24279;SDS011;12395;42.808;23.408;2023-04-03T02:36:16;3.40;;;2.17;;
24279;SDS011;12395;42.808;23.408;2023-04-03T02:38:42;4.10;;;2.20;;
24279;SDS011;12395;42.808;23.408;2023-04-03T02:41:08;2.40;;;2.10;;
24279;SDS011;12395;42.808;23.408;2023-04-03T02:43:35;3.80;;;2.23;;
24279;SDS011;12395;42.808;23.408;2023-04-03T02:46:01;3.93;;;2.33;;
24279;SDS011;12395;42.808;23.408;2023-04-03T02:48:27;4.30;;;2.80;;
24279;SDS011;12395;42.808;23.408;2023-04-03T02:50:52;4.40;;;2.50;;
24279;SDS011;12395;42.808;23.408;2023-04-03T02:53:18;4.00;;;2.77;;
24279;SDS011;12395;42.808;23.408;2023-04-03T02:55:44;3.92;;;2.75;;
24279;SDS011;12395;42.808;23.408;2023-04-03T02:58:09;4.50;;;3.00;;
24279;SDS011;12395;42.808;23.408;2023-04-03T03:00:35;3.53;;;2.67;;
24279;SDS011;12395;42.808;23.408;2023-04-03T03:03:01;3.53;;;2.50;;
24279;SDS011;12395;42.808;23.408;2023-04-03T03:05:27;3.40;;;2.40;;
24279;SDS011;12395;42.808;23.408;2023-04-03T03:07:53;5.17;;;2.60;;
24279;SDS011;12395;42.808;23.408;2023-04-03T03:10:18;3.40;;;2.60;;
24279;SDS011;12395;42.808;23.408;2023-04-03T03:12:44;4.03;;;2.90;;
24279;SDS011;12395;42.808;23.408;2023-04-03T03:15:10;5.30;;;3.07;;
24279;SDS011;12395;42.808;23.408;2023-04-03T03:17:36;4.17;;;2.83;;
24279;SDS011;12395;42.808;23.408;2023-04-03T03:20:02;4.33;;;2.87;;
24279;SDS011;12395;42.808;23.408;2023-04-03T03:22:28;3.30;;;2.40;;
24279;SDS011;12395;42.808;23.408;2023-04-03T03:24:54;3.87;;;2.50;;
24279;SDS011;12395;42.808;23.408;2023-04-03T03:27:20;4.43;;;2.50;;
24279;SDS011;12395;42.808;23.408;2023-04-03T03:29:45;4.13;;;2.70;;
24279;SDS011;12395;42.808;23.408;2023-04-03T03:32:11;2.70;;;2.30;;
24279;SDS011;12395;42.808;23.408;2023-04-03T03:34:37;2.93;;;2.20;;
24279;SDS011;12395;42.808;23.408;2023-04-03T03:37:02;3.07;;;2.20;;
24279;SDS011;12395;42.808;23.408;2023-04-03T03:39:28;4.17;;;2.53;;
24279;SDS011;12395;42.808;23.408;2023-04-03T03:41:53;4.67;;;2.50;;
24279;SDS011;12395;42.808;23.408;2023-04-03T03:44:19;3.23;;;2.27;;
24279;SDS011;12395;42.808;23.408;2023-04-03T03:46:45;3.87;;;2.53;;
24279;SDS011;12395;42.808;23.408;2023-04-03T03:49:11;2.43;;;2.03;;
24279;SDS011;12395;42.808;23.408;2023-04-03T03:51:37;3.00;;;2.37;;
24279;SDS011;12395;42.808;23.408;2023-04-03T03:54:03;4.20;;;2.70;;
24279;SDS011;12395;42.808;23.408;2023-04-03T03:56:29;4.97;;;4.37;;
24279;SDS011;12395;42.808;23.408;2023-04-03T03:58:54;6.00;;;4.63;;
24279;SDS011;12395;42.808;23.408;2023-04-03T04:01:21;4.50;;;2.50;;
24279;SDS011;12395;42.808;23.408;2023-04-03T04:03:48;3.58;;;2.50;;
24279;SDS011;12395;42.808;23.408;2023-04-03T04:06:13;4.20;;;2.50;;
24279;SDS011;12395;42.808;23.408;2023-04-03T04:08:39;4.10;;;2.80;;
24279;SDS011;12395;42.808;23.408;2023-04-03T04:11:05;2.83;;;2.40;;
24279;SDS011;12395;42.808;23.408;2023-04-03T04:13:30;2.63;;;2.10;;
24279;SDS011;12395;42.808;23.408;2023-04-03T04:15:55;4.00;;;2.50;;
24279;SDS011;12395;42.808;23.408;2023-04-03T04:18:21;4.00;;;2.60;;
24279;SDS011;12395;42.808;23.408;2023-04-03T04:20:47;3.90;;;2.40;;
24279;SDS011;12395;42.808;23.408;2023-04-03T04:23:13;4.37;;;2.77;;
24279;SDS011;12395;42.808;23.408;2023-04-03T04:25:39;4.03;;;2.53;;
24279;SDS011;12395;42.808;23.408;2023-04-03T04:28:05;2.87;;;2.30;;
24279;SDS011;12395;42.808;23.408;2023-04-03T04:30:31;2.63;;;2.20;;
24279;SDS011;12395;42.808;23.408;2023-04-03T04:32:57;2.53;;;2.07;;
24279;SDS011;12395;42.808;23.408;2023-04-03T04:35:22;2.30;;;2.10;;
24279;SDS011;12395;42.808;23.408;2023-04-03T04:37:47;4.13;;;2.40;;
24279;SDS011;12395;42.808;23.408;2023-04-03T04:40:13;3.97;;;2.80;;
24279;SDS011;12395;42.808;23.408;2023-04-03T04:42:38;4.93;;;3.10;;
24279;SDS011;12395;42.808;23.408;2023-04-03T04:45:04;4.77;;;3.00;;
24279;SDS011;12395;42.808;23.408;2023-04-03T04:47:30;5.20;;;3.53;;
24279;SDS011;12395;42.808;23.408;2023-04-03T04:49:55;5.50;;;2.90;;
24279;SDS011;12395;42.808;23.408;2023-04-03T04:52:21;5.23;;;2.90;;
24279;SDS011;12395;42.808;23.408;2023-04-03T04:54:46;4.47;;;2.80;;
24279;SDS011;12395;42.808;23.408;2023-04-03T04:57:12;4.77;;;3.00;;
24279;SDS011;12395;42.808;23.408;2023-04-03T04:59:37;4.27;;;2.90;;
24279;SDS011;12395;42.808;23.408;2023-04-03T05:02:03;5.30;;;3.27;;
24279;SDS011;12395;42.808;23.408;2023-04-03T05:04:28;4.53;;;2.97;;
24279;SDS011;12395;42.808;23.408;2023-04-03T05:06:54;5.37;;;2.87;;
24279;SDS011;12395;42.808;23.408;2023-04-03T05:09:19;4.23;;;2.70;;
24279;SDS011;12395;42.808;23.408;2023-04-03T05:11:45;4.13;;;2.80;;
24279;SDS011;12395;42.808;23.408;2023-04-03T05:14:11;5.20;;;3.10;;
24279;SDS011;12395;42.808;23.408;2023-04-03T05:16:36;3.00;;;2.33;;
24279;SDS011;12395;42.808;23.408;2023-04-03T05:19:02;2.60;;;2.13;;
24279;SDS011;12395;42.808;23.408;2023-04-03T05:21:28;2.67;;;1.90;;
24279;SDS011;12395;42.808;23.408;2023-04-03T05:23:57;2.80;;;2.13;;
24279;SDS011;12395;42.808;23.408;2023-04-03T05:26:23;3.63;;;2.40;;
24279;SDS011;12395;42.808;23.408;2023-04-03T05:28:50;2.88;;;1.90;;
24279;SDS011;12395;42.808;23.408;2023-04-03T05:31:15;3.58;;;2.20;;
24279;SDS011;12395;42.808;23.408;2023-04-03T05:33:41;3.65;;;2.50;;
24279;SDS011;12395;42.808;23.408;2023-04-03T05:36:07;3.78;;;2.65;;
24279;SDS011;12395;42.808;23.408;2023-04-03T05:38:32;10.50;;;5.38;;
24279;SDS011;12395;42.808;23.408;2023-04-03T05:40:58;12.68;;;5.22;;
24279;SDS011;12395;42.808;23.408;2023-04-03T05:43:23;10.02;;;5.25;;
24279;SDS011;12395;42.808;23.408;2023-04-03T05:45:49;11.27;;;5.53;;
24279;SDS011;12395;42.808;23.408;2023-04-03T05:48:14;14.30;;;6.82;;
24279;SDS011;12395;42.808;23.408;2023-04-03T05:50:39;17.85;;;7.80;;
24279;SDS011;12395;42.808;23.408;2023-04-03T05:53:07;14.57;;;6.70;;
24279;SDS011;12395;42.808;23.408;2023-04-03T05:55:51;12.75;;;6.80;;
24279;SDS011;12395;42.808;23.408;2023-04-03T05:58:17;29.75;;;11.98;;
24279;SDS011;12395;42.808;23.408;2023-04-03T06:00:42;18.83;;;8.13;;
24279;SDS011;12395;42.808;23.408;2023-04-03T06:03:07;13.13;;;7.38;;
24279;SDS011;12395;42.808;23.408;2023-04-03T06:05:33;10.75;;;6.80;;
24279;SDS011;12395;42.808;23.408;2023-04-03T06:07:58;11.38;;;6.50;;
24279;SDS011;12395;42.808;23.408;2023-04-03T06:10:24;11.32;;;6.22;;
24279;SDS011;12395;42.808;23.408;2023-04-03T06:12:49;9.32;;;5.63;;
24279;SDS011;12395;42.808;23.408;2023-04-03T06:15:15;10.25;;;5.75;;
24279;SDS011;12395;42.808;23.408;2023-04-03T06:17:42;11.60;;;6.18;;
24279;SDS011;12395;42.808;23.408;2023-04-03T06:20:08;6.90;;;4.57;;
24279;SDS011;12395;42.808;23.408;2023-04-03T06:22:34;8.73;;;5.15;;
24279;SDS011;12395;42.808;23.408;2023-04-03T06:25:00;6.38;;;4.10;;
24279;SDS011;12395;42.808;23.408;2023-04-03T06:27:25;5.78;;;3.85;;
24279;SDS011;12395;42.808;23.408;2023-04-03T06:29:51;6.22;;;3.35;;
24279;SDS011;12395;42.808;23.408;2023-04-03T06:32:16;6.25;;;3.50;;
24279;SDS011;12395;42.808;23.408;2023-04-03T06:34:42;4.80;;;3.00;;
24279;SDS011;12395;42.808;23.408;2023-04-03T06:37:13;7.07;;;3.88;;
24279;SDS011;12395;42.808;23.408;2023-04-03T06:39:40;5.97;;;3.70;;
24279;SDS011;12395;42.808;23.408;2023-04-03T06:42:06;8.60;;;3.97;;
24279;SDS011;12395;42.808;23.408;2023-04-03T06:44:32;6.13;;;3.63;;
24279;SDS011;12395;42.808;23.408;2023-04-03T06:46:59;5.85;;;3.55;;
24279;SDS011;12395;42.808;23.408;2023-04-03T06:49:25;5.82;;;3.33;;
24279;SDS011;12395;42.808;23.408;2023-04-03T06:51:51;5.78;;;3.50;;
24279;SDS011;12395;42.808;23.408;2023-04-03T06:54:17;8.05;;;5.03;;
24279;SDS011;12395;42.808;23.408;2023-04-03T06:56:43;14.10;;;6.47;;
24279;SDS011;12395;42.808;23.408;2023-04-03T06:59:09;17.48;;;8.93;;
24279;SDS011;12395;42.808;23.408;2023-04-03T07:01:35;22.80;;;12.55;;
24279;SDS011;12395;42.808;23.408;2023-04-03T07:04:00;26.50;;;13.50;;
24279;SDS011;12395;42.808;23.408;2023-04-03T07:06:26;35.90;;;13.85;;
24279;SDS011;12395;42.808;23.408;2023-04-03T07:08:52;17.20;;;8.30;;
24279;SDS011;12395;42.808;23.408;2023-04-03T07:11:17;15.50;;;6.97;;
24279;SDS011;12395;42.808;23.408;2023-04-03T07:13:43;17.70;;;8.30;;
24279;SDS011;12395;42.808;23.408;2023-04-03T07:16:08;13.70;;;6.60;;
24279;SDS011;12395;42.808;23.408;2023-04-03T07:18:34;9.75;;;5.28;;
24279;SDS011;12395;42.808;23.408;2023-04-03T07:21:00;10.95;;;6.13;;
24279;SDS011;12395;42.808;23.408;2023-04-03T07:23:25;13.80;;;7.00;;
24279;SDS011;12395;42.808;23.408;2023-04-03T07:25:51;13.27;;;7.05;;
24279;SDS011;12395;42.808;23.408;2023-04-03T07:28:17;18.75;;;8.68;;
24279;SDS011;12395;42.808;23.408;2023-04-03T07:30:45;20.20;;;10.82;;
24279;SDS011;12395;42.808;23.408;2023-04-03T07:33:12;18.90;;;10.20;;
24279;SDS011;12395;42.808;23.408;2023-04-03T07:35:39;19.88;;;10.95;;
24279;SDS011;12395;42.808;23.408;2023-04-03T07:38:06;13.57;;;8.30;;
24279;SDS011;12395;42.808;23.408;2023-04-03T07:40:31;15.82;;;8.77;;
24279;SDS011;12395;42.808;23.408;2023-04-03T07:42:57;14.10;;;8.00;;
24279;SDS011;12395;42.808;23.408;2023-04-03T07:45:23;13.52;;;8.07;;
24279;SDS011;12395;42.808;23.408;2023-04-03T07:47:49;8.88;;;5.80;;
24279;SDS011;12395;42.808;23.408;2023-04-03T07:50:15;9.70;;;5.63;;
24279;SDS011;12395;42.808;23.408;2023-04-03T07:52:41;11.07;;;5.65;;
24279;SDS011;12395;42.808;23.408;2023-04-03T07:55:07;9.35;;;5.75;;
24279;SDS011;12395;42.808;23.408;2023-04-03T07:57:33;16.35;;;7.18;;
24279;SDS011;12395;42.808;23.408;2023-04-03T07:59:58;11.15;;;6.28;;
24279;SDS011;12395;42.808;23.408;2023-04-03T08:02:23;10.85;;;5.78;;
24279;SDS011;12395;42.808;23.408;2023-04-03T08:04:49;13.43;;;6.97;;
24279;SDS011;12395;42.808;23.408;2023-04-03T08:07:15;12.25;;;7.60;;
24279;SDS011;12395;42.808;23.408;2023-04-03T08:09:40;11.40;;;6.10;;
24279;SDS011;12395;42.808;23.408;2023-04-03T08:12:06;11.13;;;6.25;;
24279;SDS011;12395;42.808;23.408;2023-04-03T08:14:32;12.77;;;7.05;;
24279;SDS011;12395;42.808;23.408;2023-04-03T08:19:25;29.35;;;9.55;;
24279;SDS011;12395;42.808;23.408;2023-04-03T08:21:52;11.15;;;5.97;;
24279;SDS011;12395;42.808;23.408;2023-04-03T08:24:18;11.27;;;7.55;;
24279;SDS011;12395;42.808;23.408;2023-04-03T08:26:44;17.45;;;10.23;;
24279;SDS011;12395;42.808;23.408;2023-04-03T08:29:09;22.33;;;9.70;;
24279;SDS011;12395;42.808;23.408;2023-04-03T08:31:35;18.25;;;8.05;;
24279;SDS011;12395;42.808;23.408;2023-04-03T08:34:00;15.40;;;6.80;;
24279;SDS011;12395;42.808;23.408;2023-04-03T08:36:26;12.38;;;6.07;;
24279;SDS011;12395;42.808;23.408;2023-04-03T08:41:39;15.68;;;6.65;;
24279;SDS011;12395;42.808;23.408;2023-04-03T08:49:39;11.13;;;5.85;;
24279;SDS011;12395;42.808;23.408;2023-04-03T08:52:14;14.23;;;7.15;;
24279;SDS011;12395;42.808;23.408;2023-04-03T08:57:17;11.32;;;6.03;;
24279;SDS011;12395;42.808;23.408;2023-04-03T08:59:51;23.95;;;9.88;;
24279;SDS011;12395;42.808;23.408;2023-04-03T09:02:24;11.82;;;5.35;;
24279;SDS011;12395;42.808;23.408;2023-04-03T09:04:54;16.95;;;7.30;;
24279;SDS011;12395;42.808;23.408;2023-04-03T09:07:22;13.48;;;5.70;;
24279;SDS011;12395;42.808;23.408;2023-04-03T09:10:13;7.00;;;4.68;;
24279;SDS011;12395;42.808;23.408;2023-04-03T09:12:49;13.15;;;5.68;;
24279;SDS011;12395;42.808;23.408;2023-04-03T09:15:22;8.02;;;4.72;;
24279;SDS011;12395;42.808;23.408;2023-04-03T09:26:39;8.45;;;4.93;;
24279;SDS011;12395;42.808;23.408;2023-04-03T09:29:12;7.03;;;4.00;;
24279;SDS011;12395;42.808;23.408;2023-04-03T09:31:43;7.95;;;4.35;;
24279;SDS011;12395;42.808;23.408;2023-04-03T09:37:32;7.97;;;4.10;;
24279;SDS011;12395;42.808;23.408;2023-04-03T09:40:04;7.22;;;4.30;;
24279;SDS011;12395;42.808;23.408;2023-04-03T09:42:31;7.75;;;4.50;;
24279;SDS011;12395;42.808;23.408;2023-04-03T09:45:04;7.28;;;4.60;;
24279;SDS011;12395;42.808;23.408;2023-04-03T09:52:39;8.13;;;4.43;;
24279;SDS011;12395;42.808;23.408;2023-04-03T09:55:16;14.93;;;6.80;;
24279;SDS011;12395;42.808;23.408;2023-04-03T09:57:44;13.15;;;6.03;;
24279;SDS011;12395;42.808;23.408;2023-04-03T10:00:21;9.82;;;4.55;;
24279;SDS011;12395;42.808;23.408;2023-04-03T10:05:54;8.98;;;4.05;;
24279;SDS011;12395;42.808;23.408;2023-04-03T10:08:25;9.65;;;4.25;;
24279;SDS011;12395;42.808;23.408;2023-04-03T10:13:35;6.30;;;2.42;;
24279;SDS011;12395;42.808;23.408;2023-04-03T10:16:09;18.42;;;1.40;;
24279;SDS011;12395;42.808;23.408;2023-04-03T10:18:41;0.77;;;0.70;;
24279;SDS011;12395;42.808;23.408;2023-04-03T10:26:52;0.57;;;0.57;;
24279;SDS011;12395;42.808;23.408;2023-04-03T10:35:44;0.63;;;0.60;;
24279;SDS011;12395;42.808;23.408;2023-04-03T10:38:20;0.80;;;0.73;;
24279;SDS011;12395;42.808;23.408;2023-04-03T10:46:17;0.85;;;0.55;;
24279;SDS011;12395;42.808;23.408;2023-04-03T10:48:59;1.27;;;0.65;;
24279;SDS011;12395;42.808;23.408;2023-04-03T10:51:41;0.93;;;0.70;;
24279;SDS011;12395;42.808;23.408;2023-04-03T10:54:12;0.90;;;0.60;;
24279;SDS011;12395;42.808;23.408;2023-04-03T10:56:52;0.75;;;0.68;;
24279;SDS011;12395;42.808;23.408;2023-04-03T11:07:45;0.85;;;0.80;;
24279;SDS011;12395;42.808;23.408;2023-04-03T11:10:16;1.00;;;0.80;;
24279;SDS011;12395;42.808;23.408;2023-04-03T11:12:49;0.65;;;0.60;;
24279;SDS011;12395;42.808;23.408;2023-04-03T11:15:21;1.35;;;0.98;;
24279;SDS011;12395;42.808;23.408;2023-04-03T11:17:51;1.23;;;0.90;;
24279;SDS011;12395;42.808;23.408;2023-04-03T11:25:39;1.27;;;1.00;;
24279;SDS011;12395;42.808;23.408;2023-04-03T11:28:12;1.00;;;0.90;;
24279;SDS011;12395;42.808;23.408;2023-04-03T11:30:49;1.00;;;0.90;;
24279;SDS011;12395;42.808;23.408;2023-04-03T11:36:29;1.45;;;0.80;;
24279;SDS011;12395;42.808;23.408;2023-04-03T11:38:58;1.00;;;0.68;;
24279;SDS011;12395;42.808;23.408;2023-04-03T11:41:29;1.58;;;0.80;;
24279;SDS011;12395;42.808;23.408;2023-04-03T11:46:22;10.55;;;4.63;;
24279;SDS011;12395;42.808;23.408;2023-04-03T11:48:49;10.10;;;3.90;;
24279;SDS011;12395;42.808;23.408;2023-04-03T11:53:54;7.90;;;4.20;;
24279;SDS011;12395;42.808;23.408;2023-04-03T11:59:15;7.97;;;4.63;;
24279;SDS011;12395;42.808;23.408;2023-04-03T12:04:14;7.03;;;4.53;;
24279;SDS011;12395;42.808;23.408;2023-04-03T12:11:48;7.57;;;4.90;;
24279;SDS011;12395;42.808;23.408;2023-04-03T12:14:15;8.55;;;4.68;;
24279;SDS011;12395;42.808;23.408;2023-04-03T12:16:42;9.57;;;5.80;;
24279;SDS011;12395;42.808;23.408;2023-04-03T12:38:14;8.25;;;4.97;;
24279;SDS011;12395;42.808;23.408;2023-04-03T12:46:38;7.40;;;4.50;;
24279;SDS011;12395;42.808;23.408;2023-04-03T12:49:18;6.75;;;4.30;;
24279;SDS011;12395;42.808;23.408;2023-04-03T12:51:54;7.13;;;4.40;;
24279;SDS011;12395;42.808;23.408;2023-04-03T12:56:45;7.43;;;4.75;;
24279;SDS011;12395;42.808;23.408;2023-04-03T12:59:15;7.20;;;4.75;;
24279;SDS011;12395;42.808;23.408;2023-04-03T13:01:41;6.30;;;4.00;;
24279;SDS011;12395;42.808;23.408;2023-04-03T13:04:09;6.05;;;3.60;;
24279;SDS011;12395;42.808;23.408;2023-04-03T13:06:40;9.38;;;3.72;;
24279;SDS011;12395;42.808;23.408;2023-04-03T13:09:21;6.63;;;3.97;;
24279;SDS011;12395;42.808;23.408;2023-04-03T13:11:58;7.05;;;3.70;;
24279;SDS011;12395;42.808;23.408;2023-04-03T13:14:35;6.65;;;3.80;;
24279;SDS011;12395;42.808;23.408;2023-04-03T13:17:12;8.20;;;4.10;;
24279;SDS011;12395;42.808;23.408;2023-04-03T13:19:39;6.55;;;3.80;;
24279;SDS011;12395;42.808;23.408;2023-04-03T13:22:26;5.88;;;3.28;;
24279;SDS011;12395;42.808;23.408;2023-04-03T13:24:56;5.20;;;2.83;;
24279;SDS011;12395;42.808;23.408;2023-04-03T13:27:24;6.22;;;3.53;;
24279;SDS011;12395;42.808;23.408;2023-04-03T13:29:51;7.47;;;4.05;;
24279;SDS011;12395;42.808;23.408;2023-04-03T13:32:23;7.20;;;4.28;;
24279;SDS011;12395;42.808;23.408;2023-04-03T13:34:51;5.38;;;3.60;;
24279;SDS011;12395;42.808;23.408;2023-04-03T13:37:28;5.07;;;2.80;;
24279;SDS011;12395;42.808;23.408;2023-04-03T13:42:24;8.40;;;4.20;;
24279;SDS011;12395;42.808;23.408;2023-04-03T13:47:49;7.63;;;4.28;;
24279;SDS011;12395;42.808;23.408;2023-04-03T13:52:46;10.38;;;5.28;;
24279;SDS011;12395;42.808;23.408;2023-04-03T14:00:37;9.35;;;4.53;;
24279;SDS011;12395;42.808;23.408;2023-04-03T14:03:30;11.13;;;4.93;;
24279;SDS011;12395;42.808;23.408;2023-04-03T14:06:08;8.23;;;4.22;;
24279;SDS011;12395;42.808;23.408;2023-04-03T14:08:35;13.52;;;6.30;;
24279;SDS011;12395;42.808;23.408;2023-04-03T14:11:01;10.95;;;6.38;;
24279;SDS011;12395;42.808;23.408;2023-04-03T14:13:29;8.75;;;5.10;;
24279;SDS011;12395;42.808;23.408;2023-04-03T14:15:55;9.25;;;4.10;;
24279;SDS011;12395;42.808;23.408;2023-04-03T14:18:21;5.40;;;3.72;;
24279;SDS011;12395;42.808;23.408;2023-04-03T14:20:47;7.63;;;4.18;;
24279;SDS011;12395;42.808;23.408;2023-04-03T14:23:13;7.78;;;4.20;;
24279;SDS011;12395;42.808;23.408;2023-04-03T14:25:39;8.63;;;6.05;;
24279;SDS011;12395;42.808;23.408;2023-04-03T14:28:19;7.40;;;4.32;;
24279;SDS011;12395;42.808;23.408;2023-04-03T14:30:47;8.27;;;5.40;;
24279;SDS011;12395;42.808;23.408;2023-04-03T14:33:16;7.88;;;4.35;;
24279;SDS011;12395;42.808;23.408;2023-04-03T14:35:45;7.10;;;4.00;;
24279;SDS011;12395;42.808;23.408;2023-04-03T14:38:13;9.10;;;4.25;;
24279;SDS011;12395;42.808;23.408;2023-04-03T14:40:47;7.10;;;3.50;;
24279;SDS011;12395;42.808;23.408;2023-04-03T14:43:12;5.43;;;3.08;;
24279;SDS011;12395;42.808;23.408;2023-04-03T14:45:38;4.85;;;3.03;;
24279;SDS011;12395;42.808;23.408;2023-04-03T14:48:04;4.32;;;2.58;;
24279;SDS011;12395;42.808;23.408;2023-04-03T14:50:31;5.30;;;2.88;;
24279;SDS011;12395;42.808;23.408;2023-04-03T14:52:57;7.40;;;4.18;;
24279;SDS011;12395;42.808;23.408;2023-04-03T14:55:24;12.27;;;5.43;;
24279;SDS011;12395;42.808;23.408;2023-04-03T14:57:50;9.75;;;5.40;;
24279;SDS011;12395;42.808;23.408;2023-04-03T15:00:18;11.32;;;5.47;;
24279;SDS011;12395;42.808;23.408;2023-04-03T15:02:45;8.48;;;4.97;;
24279;SDS011;12395;42.808;23.408;2023-04-03T15:05:12;10.60;;;5.47;;
24279;SDS011;12395;42.808;23.408;2023-04-03T15:08:00;9.30;;;5.72;;
24279;SDS011;12395;42.808;23.408;2023-04-03T15:10:29;10.32;;;5.97;;
24279;SDS011;12395;42.808;23.408;2023-04-03T15:12:55;7.93;;;5.22;;
24279;SDS011;12395;42.808;23.408;2023-04-03T15:15:22;8.48;;;5.53;;
24279;SDS011;12395;42.808;23.408;2023-04-03T15:17:50;9.25;;;6.05;;
24279;SDS011;12395;42.808;23.408;2023-04-03T15:20:23;10.93;;;6.10;;
24279;SDS011;12395;42.808;23.408;2023-04-03T15:22:50;9.30;;;5.78;;
24279;SDS011;12395;42.808;23.408;2023-04-03T15:25:16;9.90;;;6.25;;
24279;SDS011;12395;42.808;23.408;2023-04-03T15:27:42;9.07;;;6.28;;
24279;SDS011;12395;42.808;23.408;2023-04-03T15:30:10;9.05;;;6.10;;
24279;SDS011;12395;42.808;23.408;2023-04-03T15:32:39;8.75;;;6.10;;
24279;SDS011;12395;42.808;23.408;2023-04-03T15:35:05;8.93;;;6.05;;
24279;SDS011;12395;42.808;23.408;2023-04-03T15:37:30;9.27;;;6.07;;
24279;SDS011;12395;42.808;23.408;2023-04-03T15:39:56;7.95;;;5.65;;
24279;SDS011;12395;42.808;23.408;2023-04-03T15:42:22;9.00;;;5.70;;
24279;SDS011;12395;42.808;23.408;2023-04-03T15:44:47;9.15;;;5.80;;
24279;SDS011;12395;42.808;23.408;2023-04-03T15:47:13;10.65;;;6.20;;
24279;SDS011;12395;42.808;23.408;2023-04-03T15:49:38;11.27;;;6.18;;
24279;SDS011;12395;42.808;23.408;2023-04-03T15:52:04;10.02;;;5.78;;
24279;SDS011;12395;42.808;23.408;2023-04-03T15:54:30;8.07;;;5.60;;
24279;SDS011;12395;42.808;23.408;2023-04-03T15:56:55;9.35;;;5.70;;
24279;SDS011;12395;42.808;23.408;2023-04-03T15:59:21;9.52;;;5.80;;
24279;SDS011;12395;42.808;23.408;2023-04-03T16:01:47;8.93;;;5.13;;
24279;SDS011;12395;42.808;23.408;2023-04-03T16:04:13;9.15;;;5.63;;
24279;SDS011;12395;42.808;23.408;2023-04-03T16:06:40;8.32;;;5.30;;
24279;SDS011;12395;42.808;23.408;2023-04-03T16:09:06;9.85;;;6.35;;
24279;SDS011;12395;42.808;23.408;2023-04-03T16:11:32;14.98;;;8.95;;
24279;SDS011;12395;42.808;23.408;2023-04-03T16:16:25;12.77;;;7.93;;
24279;SDS011;12395;42.808;23.408;2023-04-03T16:18:52;14.57;;;9.23;;
24279;SDS011;12395;42.808;23.408;2023-04-03T16:21:19;16.17;;;9.10;;
24279;SDS011;12395;42.808;23.408;2023-04-03T16:23:45;15.93;;;9.32;;
24279;SDS011;12395;42.808;23.408;2023-04-03T16:26:11;16.65;;;9.18;;
24279;SDS011;12395;42.808;23.408;2023-04-03T16:28:36;14.98;;;8.55;;
24279;SDS011;12395;42.808;23.408;2023-04-03T16:31:02;14.65;;;9.10;;
24279;SDS011;12395;42.808;23.408;2023-04-03T16:33:27;11.90;;;7.93;;
24279;SDS011;12395;42.808;23.408;2023-04-03T16:35:55;10.60;;;7.05;;
24279;SDS011;12395;42.808;23.408;2023-04-03T16:38:20;12.57;;;7.35;;
24279;SDS011;12395;42.808;23.408;2023-04-03T16:40:47;11.43;;;6.97;;
24279;SDS011;12395;42.808;23.408;2023-04-03T16:43:13;11.68;;;7.10;;
24279;SDS011;12395;42.808;23.408;2023-04-03T16:45:39;10.80;;;6.57;;
24279;SDS011;12395;42.808;23.408;2023-04-03T16:48:05;9.98;;;6.13;;
24279;SDS011;12395;42.808;23.408;2023-04-03T16:50:31;9.38;;;5.68;;